M I D A S
Marine Information and Data Acquisition System
Tripno 2303 of the Zeeleeuw from 2012-03-06 08:06:39 to 2012-03-06 15:37:02
Back to CruiseResearch ActivitiesStationsMapUnderway DataData graphs

EquipmentUnitsComment
TimeDGPSUTC
LatitudeDGPSDM.mWGS84
LongitudeDGPSDM.mWGS84
HeadingGyrodeg 
SOGDGPSknotsSpeed over ground
COGDGPSdegCourse over ground
DepthEcho soundermeters200 kHz
Missing or incorrect values are displayed as -999
Navigation data collected by the RV Zeeleeuw from 2012-03-06 07:05:44 to 2012-03-06 15:48:34
                                                                                    Next 1000 lines
Time Latitude Longitude Heading SOG COG Depth
2012-03-06 07:05:53 51°13.638 2°56.016 125.6 0.1 165 -999
2012-03-06 07:05:59 51°13.639 2°56.016 125.6 0.1 167 -999
2012-03-06 07:06:04 51°13.639 2°56.016 125.6 0.1 2 -999
2012-03-06 07:06:09 51°13.64 2°56.016 125.6 0.1 133 -999
2012-03-06 07:06:14 51°13.639 2°56.015 125.6 0.2 183 -999
2012-03-06 07:06:19 51°13.64 2°56.015 125.5 0.1 323 -999
2012-03-06 07:06:24 51°13.64 2°56.015 125.5 0.1 356 -999
2012-03-06 07:06:29 51°13.639 2°56.015 125.5 -999 118 -999
2012-03-06 07:06:34 51°13.639 2°56.015 125.5 -999 189 -999
2012-03-06 07:06:39 51°13.639 2°56.015 125.5 0.1 9 -999
2012-03-06 07:06:44 51°13.64 2°56.015 125.5 0.2 -999 -999
2012-03-06 07:06:50 51°13.639 2°56.015 125.5 0.1 356 -999
2012-03-06 07:06:55 51°13.639 2°56.016 125.5 -999 347 -999
2012-03-06 07:07:00 51°13.639 2°56.016 125.5 0.1 9 -999
2012-03-06 07:07:05 51°13.639 2°56.016 125.5 0.1 356 -999
2012-03-06 07:07:08 51°13.64 2°56.016 125.5 0.1 349 -999
2012-03-06 07:07:15 51°13.64 2°56.016 125.5 0.1 357 -999
2012-03-06 07:07:20 51°13.639 2°56.016 125.5 0.1 354 -999
2012-03-06 07:07:25 51°13.639 2°56.016 125.5 -999 134 -999
2012-03-06 07:07:30 51°13.639 2°56.016 125.5 0.1 170 -999
2012-03-06 07:07:35 51°13.639 2°56.016 125.5 0.1 186 -999
2012-03-06 07:07:40 51°13.639 2°56.016 125.5 -999 278 -999
2012-03-06 07:07:45 51°13.639 2°56.016 125.5 0.1 210 -999
2012-03-06 07:07:49 51°13.639 2°56.016 125.5 -999 173 -999
2012-03-06 07:07:55 51°13.639 2°56.016 125.4 0.1 356 -999
2012-03-06 07:08:00 51°13.639 2°56.016 125.3 -999 348 -999
2012-03-06 07:08:05 51°13.639 2°56.016 125.3 0.1 -999 -999
2012-03-06 07:08:09 51°13.639 2°56.016 125.3 -999 7 -999
2012-03-06 07:08:15 51°13.639 2°56.016 125.3 -999 222 -999
2012-03-06 07:08:20 51°13.639 2°56.016 125.3 -999 205 -999
2012-03-06 07:08:25 51°13.64 2°56.016 125.3 0.1 356 -999
2012-03-06 07:08:30 51°13.639 2°56.016 125.4 0.1 187 -999
2012-03-06 07:08:35 51°13.639 2°56.016 125.5 -999 337 -999
2012-03-06 07:08:40 51°13.64 2°56.016 125.5 -999 7 -999
2012-03-06 07:08:45 51°13.639 2°56.016 125.5 0.1 340 -999
2012-03-06 07:08:49 51°13.639 2°56.016 125.5 0.1 198 -999
2012-03-06 07:08:55 51°13.64 2°56.016 125.6 0.2 351 -999
2012-03-06 07:09:00 51°13.639 2°56.016 125.6 0.1 341 -999
2012-03-06 07:09:05 51°13.639 2°56.016 125.6 0.1 11 -999
2012-03-06 07:09:10 51°13.639 2°56.016 125.6 -999 5 -999
2012-03-06 07:09:15 51°13.639 2°56.016 125.6 0.1 185 -999
2012-03-06 07:09:20 51°13.639 2°56.016 125.6 -999 164 -999
2012-03-06 07:09:25 51°13.639 2°56.016 125.6 -999 303 -999
2012-03-06 07:09:30 51°13.639 2°56.016 125.6 -999 351 -999
2012-03-06 07:09:35 51°13.639 2°56.016 125.6 0.1 178 -999
2012-03-06 07:09:40 51°13.639 2°56.017 125.6 -999 178 -999
2012-03-06 07:09:45 51°13.639 2°56.016 125.6 -999 13 -999
2012-03-06 07:09:50 51°13.639 2°56.016 125.6 -999 204 -999
2012-03-06 07:09:55 51°13.639 2°56.017 125.6 -999 129 -999
2012-03-06 07:10:00 51°13.639 2°56.017 125.6 -999 167 -999
2012-03-06 07:10:05 51°13.639 2°56.016 125.6 -999 280 -999
2012-03-06 07:10:10 51°13.638 2°56.016 125.6 0.1 223 -999
2012-03-06 07:10:15 51°13.638 2°56.017 125.6 0.2 176 -999
2012-03-06 07:10:20 51°13.638 2°56.017 125.5 0.1 167 -999
2012-03-06 07:10:25 51°13.638 2°56.017 125.5 0.1 177 -999
2012-03-06 07:10:30 51°13.638 2°56.017 125.5 0.2 185 -999
2012-03-06 07:10:35 51°13.638 2°56.017 125.7 0.1 176 -999
2012-03-06 07:10:40 51°13.638 2°56.017 126.1 0.2 166 -999
2012-03-06 07:10:45 51°13.638 2°56.017 126.4 -999 155 -999
2012-03-06 07:10:49 51°13.638 2°56.016 126.9 -999 348 -999
2012-03-06 07:10:55 51°13.638 2°56.016 127.1 -999 261 -999
2012-03-06 07:11:00 51°13.638 2°56.016 127 0.1 327 -999
2012-03-06 07:11:05 51°13.638 2°56.016 126.1 0.1 343 -999
2012-03-06 07:11:10 51°13.638 2°56.016 125.3 -999 219 -999
2012-03-06 07:11:15 51°13.638 2°56.016 124.4 0.1 22 -999
2012-03-06 07:11:20 51°13.638 2°56.016 124.3 -999 333 -999
2012-03-06 07:11:25 51°13.638 2°56.016 124.3 -999 229 -999
2012-03-06 07:11:30 51°13.638 2°56.016 124.3 0.1 185 -999
2012-03-06 07:11:35 51°13.638 2°56.016 124.3 0.1 206 -999
2012-03-06 07:11:40 51°13.638 2°56.016 124.3 -999 344 -999
2012-03-06 07:11:45 51°13.638 2°56.016 124.3 -999 350 -999
2012-03-06 07:11:50 51°13.638 2°56.016 124.3 0.1 358 -999
2012-03-06 07:11:55 51°13.638 2°56.016 124.3 -999 28 -999
2012-03-06 07:12:00 51°13.638 2°56.016 124.4 -999 114 -999
2012-03-06 07:12:05 51°13.638 2°56.016 124.9 0.1 159 -999
2012-03-06 07:12:10 51°13.638 2°56.016 125.4 0.1 171 -999
2012-03-06 07:12:15 51°13.638 2°56.016 126 0.1 180 -999
2012-03-06 07:12:20 51°13.638 2°56.016 126.5 0.1 249 -999
2012-03-06 07:12:25 51°13.638 2°56.016 126.9 0.1 147 -999
2012-03-06 07:12:30 51°13.638 2°56.017 127 0.1 16 -999
2012-03-06 07:12:35 51°13.638 2°56.016 127 -999 305 -999
2012-03-06 07:12:40 51°13.637 2°56.016 127.1 0.2 184 -999
2012-03-06 07:12:45 51°13.637 2°56.017 127.1 0.2 176 -999
2012-03-06 07:12:50 51°13.637 2°56.017 127.1 0.2 186 -999
2012-03-06 07:12:55 51°13.638 2°56.017 127.1 0.1 1 -999
2012-03-06 07:13:00 51°13.638 2°56.017 127.1 0.2 359 -999
2012-03-06 07:13:05 51°13.637 2°56.017 127.1 0.1 171 -999
2012-03-06 07:13:09 51°13.638 2°56.017 127.2 -999 187 -999
2012-03-06 07:13:15 51°13.638 2°56.017 127.2 0.1 357 -999
2012-03-06 07:13:20 51°13.638 2°56.017 127.2 0.1 2 -999
2012-03-06 07:13:25 51°13.638 2°56.017 127.3 -999 350 -999
2012-03-06 07:13:30 51°13.638 2°56.017 127.3 0.1 9 -999
2012-03-06 07:13:35 51°13.638 2°56.017 127.4 0.1 172 -999
2012-03-06 07:13:40 51°13.638 2°56.017 127.5 0.2 1 -999
2012-03-06 07:13:45 51°13.638 2°56.017 127.5 0.1 358 -999
2012-03-06 07:13:50 51°13.637 2°56.017 127.6 0.1 202 -999
2012-03-06 07:13:55 51°13.637 2°56.016 127.6 -999 263 -999
2012-03-06 07:14:00 51°13.637 2°56.016 127.6 -999 223 -999
2012-03-06 07:14:05 51°13.637 2°56.016 127.6 0.1 198 -999
2012-03-06 07:14:10 51°13.638 2°56.016 127.6 -999 39 -999
2012-03-06 07:14:15 51°13.638 2°56.016 127.6 -999 168 -999
2012-03-06 07:14:20 51°13.637 2°56.016 127.7 -999 189 -999
2012-03-06 07:14:25 51°13.637 2°56.016 127.7 0.1 180 -999
2012-03-06 07:14:30 51°13.638 2°56.016 127.7 0.1 178 -999
2012-03-06 07:14:35 51°13.638 2°56.016 127.7 -999 288 -999
2012-03-06 07:14:40 51°13.638 2°56.016 127.7 -999 278 -999
2012-03-06 07:14:45 51°13.638 2°56.016 127.7 0.1 174 -999
2012-03-06 07:14:50 51°13.637 2°56.016 127.7 0.1 214 -999
2012-03-06 07:14:55 51°13.637 2°56.016 127.7 -999 9 -999
2012-03-06 07:14:59 51°13.637 2°56.016 127.8 0.1 3 -999
2012-03-06 07:15:04 51°13.637 2°56.015 127.8 -999 164 -999
2012-03-06 07:15:09 51°13.637 2°56.015 127.8 -999 329 -999
2012-03-06 07:15:14 51°13.637 2°56.015 127.9 0.1 351 -999
2012-03-06 07:15:20 51°13.637 2°56.015 127.9 0.1 351 -999
2012-03-06 07:15:24 51°13.636 2°56.015 127.9 -999 127 -999
2012-03-06 07:15:29 51°13.636 2°56.015 127.9 0.2 166 -999
2012-03-06 07:15:35 51°13.636 2°56.014 128 0.1 329 -999
2012-03-06 07:15:40 51°13.637 2°56.015 128 0.1 5 -999
2012-03-06 07:15:45 51°13.636 2°56.015 128 -999 86 -999
2012-03-06 07:15:49 51°13.636 2°56.015 128 -999 163 -999
2012-03-06 07:15:54 51°13.636 2°56.015 128 -999 7 -999
2012-03-06 07:16:00 51°13.637 2°56.015 128 -999 318 -999
2012-03-06 07:16:05 51°13.637 2°56.015 128 0.1 320 -999
2012-03-06 07:16:09 51°13.637 2°56.015 128 -999 263 -999
2012-03-06 07:16:14 51°13.637 2°56.016 128 0.1 350 -999
2012-03-06 07:16:20 51°13.638 2°56.016 128 0.3 352 -999
2012-03-06 07:16:25 51°13.638 2°56.016 127.9 0.2 356 -999
2012-03-06 07:16:29 51°13.637 2°56.016 127.9 0.1 18 -999
2012-03-06 07:16:34 51°13.637 2°56.016 127.9 -999 27 -999
2012-03-06 07:16:39 51°13.637 2°56.016 127.9 0.1 171 -999
2012-03-06 07:16:45 51°13.637 2°56.015 127.9 -999 212 -999
2012-03-06 07:16:49 51°13.637 2°56.015 127.9 -999 310 -999
2012-03-06 07:16:54 51°13.637 2°56.016 127.9 -999 347 -999
2012-03-06 07:16:59 51°13.637 2°56.015 127.9 0.1 347 -999
2012-03-06 07:17:04 51°13.637 2°56.015 127.9 0.2 355 -999
2012-03-06 07:17:09 51°13.637 2°56.015 127.9 0.2 358 -999
2012-03-06 07:17:14 51°13.637 2°56.015 127.9 0.1 348 -999
2012-03-06 07:17:20 51°13.636 2°56.015 127.9 0.1 192 -999
2012-03-06 07:17:24 51°13.637 2°56.016 127.9 0.1 180 -999
2012-03-06 07:17:29 51°13.636 2°56.015 127.9 0.1 182 -999
2012-03-06 07:17:34 51°13.637 2°56.015 127.9 0.1 324 -999
2012-03-06 07:17:40 51°13.636 2°56.015 127.9 -999 205 -999
2012-03-06 07:17:44 51°13.637 2°56.015 127.7 0.1 301 -999
2012-03-06 07:17:49 51°13.636 2°56.015 127.4 -999 330 -999
2012-03-06 07:17:54 51°13.636 2°56.015 127.1 0.1 197 -999
2012-03-06 07:18:00 51°13.636 2°56.015 127.1 -999 162 -999
2012-03-06 07:18:05 51°13.637 2°56.015 127.1 0.1 3 -999
2012-03-06 07:18:09 51°13.637 2°56.015 127.2 0.2 19 -999
2012-03-06 07:18:15 51°13.636 2°56.015 127.8 -999 255 -999
2012-03-06 07:18:20 51°13.636 2°56.015 128.4 -999 256 -999
2012-03-06 07:18:25 51°13.636 2°56.015 128.4 0.1 163 -999
2012-03-06 07:18:29 51°13.636 2°56.015 128.5 0.1 168 -999
2012-03-06 07:18:34 51°13.637 2°56.015 128.4 -999 23 -999
2012-03-06 07:18:39 51°13.637 2°56.015 128.4 0.2 357 -999
2012-03-06 07:18:45 51°13.637 2°56.016 128.4 0.1 344 -999
2012-03-06 07:18:49 51°13.637 2°56.016 128.4 0.1 176 -999
2012-03-06 07:18:54 51°13.637 2°56.016 128.4 -999 333 -999
2012-03-06 07:18:59 51°13.637 2°56.016 128.4 -999 226 -999
2012-03-06 07:19:04 51°13.637 2°56.016 128.4 0.1 185 -999
2012-03-06 07:19:09 51°13.637 2°56.016 128.4 0.1 189 -999
2012-03-06 07:19:14 51°13.637 2°56.016 128.4 0.1 183 -999
2012-03-06 07:19:19 51°13.637 2°56.016 128.4 -999 161 -999
2012-03-06 07:19:24 51°13.638 2°56.016 128.4 0.1 12 -999
2012-03-06 07:19:29 51°13.637 2°56.016 128.4 -999 172 -999
2012-03-06 07:19:34 51°13.638 2°56.016 128.4 -999 318 -999
2012-03-06 07:19:40 51°13.638 2°56.016 128.4 -999 193 -999
2012-03-06 07:19:44 51°13.638 2°56.016 128.4 0.2 342 -999
2012-03-06 07:19:49 51°13.638 2°56.016 128.4 0.2 343 -999
2012-03-06 07:19:54 51°13.639 2°56.016 128.4 0.2 340 -999
2012-03-06 07:19:59 51°13.639 2°56.015 128.4 0.2 324 -999
2012-03-06 07:20:05 51°13.638 2°56.016 128.4 0.2 187 -999
2012-03-06 07:20:09 51°13.638 2°56.016 128.4 0.1 182 -999
2012-03-06 07:20:14 51°13.638 2°56.016 128.3 0.1 354 -999
2012-03-06 07:20:20 51°13.638 2°56.016 128.3 -999 9 -999
2012-03-06 07:20:25 51°13.638 2°56.016 128.3 -999 320 -999
2012-03-06 07:20:29 51°13.638 2°56.016 128.3 0.1 9 -999
2012-03-06 07:20:34 51°13.638 2°56.016 128.3 0.1 16 -999
2012-03-06 07:20:40 51°13.638 2°56.016 128.3 0.1 15 -999
2012-03-06 07:20:45 51°13.638 2°56.016 128.3 0.1 11 -999
2012-03-06 07:20:49 51°13.638 2°56.016 128.3 0.1 15 -999
2012-03-06 07:20:54 51°13.638 2°56.016 128.2 -999 10 -999
2012-03-06 07:20:59 51°13.638 2°56.017 128.2 0.1 5 -999
2012-03-06 07:21:05 51°13.638 2°56.016 128.2 0.1 352 -999
2012-03-06 07:21:09 51°13.638 2°56.016 128.2 0.1 303 -999
2012-03-06 07:21:14 51°13.638 2°56.016 128.2 0.1 260 -999
2012-03-06 07:21:19 51°13.638 2°56.016 128.2 0.1 209 -999
2012-03-06 07:21:25 51°13.638 2°56.017 128.2 0.1 10 -999
2012-03-06 07:21:29 51°13.638 2°56.016 128.2 0.1 341 -999
2012-03-06 07:21:34 51°13.638 2°56.017 128.2 0.1 12 -999
2012-03-06 07:21:40 51°13.638 2°56.016 128.2 0.1 9 -999
2012-03-06 07:21:44 51°13.638 2°56.017 128.2 0.1 21 -999
2012-03-06 07:21:49 51°13.638 2°56.016 128.2 0.1 205 -999
2012-03-06 07:21:54 51°13.638 2°56.016 128.2 0.1 207 -999
2012-03-06 07:21:59 51°13.638 2°56.017 128.2 0.1 39 -999
2012-03-06 07:22:04 51°13.638 2°56.017 128.2 -999 29 -999
2012-03-06 07:22:09 51°13.637 2°56.016 128.2 0.1 196 -999
2012-03-06 07:22:14 51°13.638 2°56.016 128.2 -999 169 -999
2012-03-06 07:22:20 51°13.637 2°56.016 128.2 0.1 191 -999
2012-03-06 07:22:25 51°13.637 2°56.016 128.2 -999 203 -999
2012-03-06 07:22:29 51°13.637 2°56.016 128.2 -999 206 -999
2012-03-06 07:22:35 51°13.638 2°56.017 128.3 0.1 10 -999
2012-03-06 07:22:40 51°13.637 2°56.016 128.2 -999 331 -999
2012-03-06 07:22:44 51°13.637 2°56.016 128.1 0.1 208 -999
2012-03-06 07:22:49 51°13.637 2°56.016 128 -999 223 -999
2012-03-06 07:22:54 51°13.637 2°56.016 128 0.1 196 -999
2012-03-06 07:23:00 51°13.637 2°56.017 128 0.1 191 -999
2012-03-06 07:23:05 51°13.637 2°56.017 128 0.1 179 -999
2012-03-06 07:23:09 51°13.637 2°56.017 128.2 -999 190 -999
2012-03-06 07:23:14 51°13.637 2°56.017 128.4 0.1 10 -999
2012-03-06 07:23:19 51°13.637 2°56.017 128.4 -999 324 -999
2012-03-06 07:23:25 51°13.637 2°56.017 128.4 0.2 197 -999
2012-03-06 07:23:29 51°13.637 2°56.017 128.4 0.1 185 -999
2012-03-06 07:23:34 51°13.637 2°56.017 128.4 -999 43 -999
2012-03-06 07:23:39 51°13.637 2°56.017 128.4 -999 203 -999
2012-03-06 07:23:44 51°13.637 2°56.017 128.4 0.1 14 -999
2012-03-06 07:23:49 51°13.637 2°56.017 128.4 0.1 24 -999
2012-03-06 07:23:54 51°13.637 2°56.017 128.4 0.1 15 -999
2012-03-06 07:23:59 51°13.637 2°56.017 128.4 0.2 18 -999
2012-03-06 07:24:04 51°13.637 2°56.017 128.4 0.1 344 -999
2012-03-06 07:24:09 51°13.637 2°56.017 128.4 0.1 -999 -999
2012-03-06 07:24:14 51°13.637 2°56.017 128.4 -999 231 -999
2012-03-06 07:24:19 51°13.637 2°56.017 128.4 0.1 200 -999
2012-03-06 07:24:24 51°13.637 2°56.017 128.4 0.1 180 -999
2012-03-06 07:24:29 51°13.637 2°56.017 128.4 -999 190 -999
2012-03-06 07:24:34 51°13.637 2°56.017 128.4 0.1 182 -999
2012-03-06 07:24:40 51°13.637 2°56.017 128.4 -999 250 -999
2012-03-06 07:24:44 51°13.637 2°56.017 128.4 0.1 359 -999
2012-03-06 07:24:49 51°13.637 2°56.017 128.4 0.1 7 -999
2012-03-06 07:24:54 51°13.636 2°56.016 128.4 0.2 184 -999
2012-03-06 07:25:00 51°13.636 2°56.016 128.4 0.3 196 -999
2012-03-06 07:25:05 51°13.637 2°56.016 128.4 -999 210 -999
2012-03-06 07:25:09 51°13.637 2°56.017 128.4 0.1 6 -999
2012-03-06 07:25:14 51°13.637 2°56.016 128.4 0.1 5 -999
2012-03-06 07:25:20 51°13.637 2°56.016 128.4 0.1 201 -999
2012-03-06 07:25:25 51°13.637 2°56.016 128.4 0.2 199 -999
2012-03-06 07:25:29 51°13.637 2°56.016 128.4 0.1 187 -999
2012-03-06 07:25:34 51°13.638 2°56.017 128.4 0.2 15 -999
2012-03-06 07:25:39 51°13.637 2°56.017 128.4 -999 204 -999
2012-03-06 07:25:45 51°13.637 2°56.016 128.4 0.1 211 -999
2012-03-06 07:25:49 51°13.637 2°56.016 128.4 -999 210 -999
2012-03-06 07:25:54 51°13.637 2°56.016 128.4 0.1 6 -999
2012-03-06 07:25:59 51°13.637 2°56.016 128.4 0.2 12 -999
2012-03-06 07:26:05 51°13.637 2°56.016 128.4 -999 161 -999
2012-03-06 07:26:09 51°13.637 2°56.016 128.4 0.1 208 -999
2012-03-06 07:26:14 51°13.637 2°56.016 128.4 -999 323 -999
2012-03-06 07:26:19 51°13.637 2°56.016 128.4 0.1 214 -999
2012-03-06 07:26:24 51°13.637 2°56.016 128.4 -999 294 -999
2012-03-06 07:26:29 51°13.637 2°56.016 128.4 -999 25 -999
2012-03-06 07:26:34 51°13.637 2°56.016 128.4 0.1 20 -999
2012-03-06 07:26:40 51°13.637 2°56.016 128.4 -999 189 -999
2012-03-06 07:26:44 51°13.637 2°56.016 128.4 0.1 199 -999
2012-03-06 07:26:49 51°13.637 2°56.016 128.4 0.1 190 -999
2012-03-06 07:26:54 51°13.637 2°56.016 128.5 -999 195 -999
2012-03-06 07:27:00 51°13.637 2°56.016 128.5 -999 2 -999
2012-03-06 07:27:04 51°13.637 2°56.016 128.5 -999 329 -999
2012-03-06 07:27:09 51°13.637 2°56.016 128.5 -999 355 -999
2012-03-06 07:27:14 51°13.637 2°56.016 128.5 0.1 18 -999
2012-03-06 07:27:20 51°13.637 2°56.016 128.6 -999 211 -999
2012-03-06 07:27:25 51°13.637 2°56.016 128.6 -999 352 -999
2012-03-06 07:27:29 51°13.637 2°56.016 128.6 0.1 17 -999
2012-03-06 07:27:34 51°13.637 2°56.016 128.6 0.1 11 -999
2012-03-06 07:27:40 51°13.637 2°56.016 128.6 -999 209 -999
2012-03-06 07:27:45 51°13.637 2°56.016 128.6 -999 11 -999
2012-03-06 07:27:49 51°13.637 2°56.016 128.5 -999 349 -999
2012-03-06 07:27:54 51°13.637 2°56.016 128.5 0.1 1 -999
2012-03-06 07:27:59 51°13.637 2°56.016 128.5 0.1 10 -999
2012-03-06 07:28:05 51°13.637 2°56.016 128.5 0.1 7 -999
2012-03-06 07:28:09 51°13.637 2°56.016 128.5 -999 355 -999
2012-03-06 07:28:14 51°13.637 2°56.016 128.5 -999 326 -999
2012-03-06 07:28:19 51°13.636 2°56.016 128.5 -999 351 -999
2012-03-06 07:28:24 51°13.636 2°56.016 128.5 -999 216 -999
2012-03-06 07:28:29 51°13.637 2°56.016 128.5 -999 341 -999
2012-03-06 07:28:34 51°13.637 2°56.016 128.5 -999 33 -999
2012-03-06 07:28:39 51°13.636 2°56.016 128.5 0.1 187 -999
2012-03-06 07:28:44 51°13.636 2°56.015 128.4 0.2 196 -999
2012-03-06 07:28:49 51°13.636 2°56.016 128.4 0.1 1 -999
2012-03-06 07:28:54 51°13.636 2°56.015 128.4 -999 239 -999
2012-03-06 07:29:00 51°13.636 2°56.016 128.4 0.1 30 -999
2012-03-06 07:29:04 51°13.636 2°56.016 128.4 0.2 18 -999
2012-03-06 07:29:09 51°13.636 2°56.016 128.4 0.3 18 -999
2012-03-06 07:29:14 51°13.636 2°56.016 128.4 -999 128 -999
2012-03-06 07:29:20 51°13.636 2°56.016 128.4 -999 314 -999
2012-03-06 07:29:25 51°13.636 2°56.016 128.4 0.1 202 -999
2012-03-06 07:29:29 51°13.636 2°56.016 128.4 0.1 207 -999
2012-03-06 07:29:34 51°13.636 2°56.016 128.4 -999 188 -999
2012-03-06 07:29:40 51°13.636 2°56.016 128.4 -999 219 -999
2012-03-06 07:29:45 51°13.636 2°56.016 128.4 0.1 198 -999
2012-03-06 07:29:49 51°13.636 2°56.016 128.4 0.1 192 -999
2012-03-06 07:29:54 51°13.636 2°56.016 128.4 -999 201 -999
2012-03-06 07:30:00 51°13.636 2°56.016 128.4 -999 1 -999
2012-03-06 07:30:05 51°13.636 2°56.016 128.4 -999 155 -999
2012-03-06 07:30:09 51°13.636 2°56.016 128.4 -999 178 -999
2012-03-06 07:30:14 51°13.637 2°56.016 128.4 0.2 10 -999
2012-03-06 07:30:19 51°13.637 2°56.016 128.4 0.3 13 -999
2012-03-06 07:30:24 51°13.636 2°56.016 128.4 0.1 206 -999
2012-03-06 07:30:29 51°13.637 2°56.016 128.4 0.1 17 -999
2012-03-06 07:30:34 51°13.636 2°56.016 128.4 0.2 22 -999
2012-03-06 07:30:39 51°13.636 2°56.016 128.4 0.1 195 -999
2012-03-06 07:30:44 51°13.636 2°56.016 128.4 -999 103 -999
2012-03-06 07:30:49 51°13.636 2°56.016 128.5 0.1 22 -999
2012-03-06 07:30:54 51°13.637 2°56.016 128.5 -999 14 -999
2012-03-06 07:31:00 51°13.637 2°56.016 128.5 0.1 9 -999
2012-03-06 07:31:04 51°13.637 2°56.016 128.5 0.3 15 -999
2012-03-06 07:31:09 51°13.638 2°56.016 128.5 0.3 15 -999
2012-03-06 07:31:14 51°13.636 2°56.016 128.5 0.2 198 -999
2012-03-06 07:31:20 51°13.637 2°56.016 128.5 0.2 18 -999
2012-03-06 07:31:24 51°13.637 2°56.016 128.5 0.1 4 -999
2012-03-06 07:31:29 51°13.637 2°56.016 128.5 0.1 2 -999
2012-03-06 07:31:34 51°13.637 2°56.016 128.5 0.1 201 -999
2012-03-06 07:31:40 51°13.637 2°56.016 128.5 -999 5 -999
2012-03-06 07:31:45 51°13.637 2°56.016 128.5 -999 252 -999
2012-03-06 07:31:49 51°13.637 2°56.016 128.5 0.1 227 -999
2012-03-06 07:31:54 51°13.636 2°56.016 128.5 0.3 200 -999
2012-03-06 07:31:59 51°13.637 2°56.016 128.5 0.1 206 -999
2012-03-06 07:32:05 51°13.637 2°56.016 128.5 -999 309 -999
2012-03-06 07:32:09 51°13.637 2°56.016 128.5 0.1 2 -999
2012-03-06 07:32:14 51°13.637 2°56.016 128.5 0.1 1 -999
2012-03-06 07:32:19 51°13.637 2°56.016 128.5 0.1 12 -999
2012-03-06 07:32:25 51°13.637 2°56.016 128.5 0.1 189 -999
2012-03-06 07:32:29 51°13.637 2°56.015 128.5 0.1 205 -999
2012-03-06 07:32:34 51°13.637 2°56.016 128.5 0.1 197 -999
2012-03-06 07:32:39 51°13.637 2°56.015 128.5 0.1 194 -999
2012-03-06 07:32:45 51°13.637 2°56.016 128.5 0.1 23 -999
2012-03-06 07:32:49 51°13.637 2°56.016 128.5 -999 35 -999
2012-03-06 07:32:54 51°13.638 2°56.016 128.5 0.1 201 -999
2012-03-06 07:32:59 51°13.638 2°56.016 128.5 0.1 204 -999
2012-03-06 07:33:04 51°13.638 2°56.016 128.5 -999 204 -999
2012-03-06 07:33:09 51°13.638 2°56.016 128.5 -999 290 -999
2012-03-06 07:33:14 51°13.638 2°56.016 128.5 -999 349 -999
2012-03-06 07:33:20 51°13.638 2°56.016 128.5 0.1 13 -999
2012-03-06 07:33:24 51°13.638 2°56.016 128.5 -999 9 -999
2012-03-06 07:33:29 51°13.638 2°56.016 128.5 -999 20 -999
2012-03-06 07:33:34 51°13.638 2°56.016 128.4 0.1 195 -999
2012-03-06 07:33:40 51°13.638 2°56.016 128.4 0.2 203 -999
2012-03-06 07:33:45 51°13.638 2°56.016 128.4 0.1 204 -999
2012-03-06 07:33:49 51°13.638 2°56.016 128.4 0.1 200 -999
2012-03-06 07:33:54 51°13.638 2°56.016 128.4 0.1 195 -999
2012-03-06 07:34:00 51°13.638 2°56.017 128.4 0.1 10 -999
2012-03-06 07:34:05 51°13.638 2°56.017 128.4 -999 11 -999
2012-03-06 07:34:09 51°13.638 2°56.016 128.4 -999 207 -999
2012-03-06 07:34:14 51°13.638 2°56.016 128.4 -999 193 -999
2012-03-06 07:34:19 51°13.638 2°56.017 128.4 0.2 13 -999
2012-03-06 07:34:25 51°13.639 2°56.017 128.4 0.3 15 -999
2012-03-06 07:34:29 51°13.639 2°56.017 128.4 0.3 21 -999
2012-03-06 07:34:34 51°13.638 2°56.017 128.4 0.1 4 -999
2012-03-06 07:34:39 51°13.638 2°56.017 128.4 0.1 27 -999
2012-03-06 07:34:45 51°13.638 2°56.016 128.4 0.1 194 -999
2012-03-06 07:34:49 51°13.638 2°56.016 128.4 -999 238 -999
2012-03-06 07:34:54 51°13.638 2°56.016 128.4 0.1 207 -999
2012-03-06 07:34:59 51°13.638 2°56.016 128.4 -999 22 -999
2012-03-06 07:35:05 51°13.638 2°56.016 128.4 -999 355 -999
2012-03-06 07:35:09 51°13.639 2°56.016 128.4 0.2 10 -999
2012-03-06 07:35:14 51°13.638 2°56.016 128.3 0.1 26 -999
2012-03-06 07:35:20 51°13.638 2°56.016 128.3 0.1 186 -999
2012-03-06 07:35:24 51°13.638 2°56.016 128.3 0.2 198 -999
2012-03-06 07:35:29 51°13.638 2°56.016 128.2 0.1 206 -999
2012-03-06 07:35:34 51°13.638 2°56.016 128.2 -999 195 -999
2012-03-06 07:35:39 51°13.638 2°56.016 128.2 0.1 212 -999
2012-03-06 07:35:44 51°13.638 2°56.016 128.2 -999 211 -999
2012-03-06 07:35:49 51°13.638 2°56.016 128.2 -999 60 -999
2012-03-06 07:35:54 51°13.638 2°56.016 128.2 0.1 203 -999
2012-03-06 07:36:00 51°13.638 2°56.016 128.2 0.1 36 -999
2012-03-06 07:36:05 51°13.638 2°56.016 128.2 -999 211 -999
2012-03-06 07:36:09 51°13.638 2°56.016 128.2 -999 197 -999
2012-03-06 07:36:14 51°13.638 2°56.016 128.2 0.1 14 -999
2012-03-06 07:36:20 51°13.637 2°56.015 128.2 0.1 9 -999
2012-03-06 07:36:24 51°13.638 2°56.016 128.2 0.2 21 -999
2012-03-06 07:36:29 51°13.637 2°56.015 128.2 0.1 14 -999
2012-03-06 07:36:34 51°13.638 2°56.016 128.2 0.2 12 -999
2012-03-06 07:36:39 51°13.637 2°56.015 128.2 0.1 8 -999
2012-03-06 07:36:45 51°13.637 2°56.016 128.3 0.1 21 -999
2012-03-06 07:36:49 51°13.637 2°56.016 128.3 0.1 14 -999
2012-03-06 07:36:54 51°13.637 2°56.016 128.3 0.1 19 -999
2012-03-06 07:36:59 51°13.637 2°56.016 128.3 0.1 203 -999
2012-03-06 07:37:04 51°13.638 2°56.016 128.3 -999 359 -999
2012-03-06 07:37:09 51°13.638 2°56.016 128.3 -999 215 -999
2012-03-06 07:37:14 51°13.637 2°56.016 128.3 -999 194 -999
2012-03-06 07:37:19 51°13.637 2°56.016 128.3 0.1 16 -999
2012-03-06 07:37:24 51°13.637 2°56.016 128.3 0.2 11 -999
2012-03-06 07:37:29 51°13.637 2°56.016 128.3 0.1 14 -999
2012-03-06 07:37:34 51°13.637 2°56.016 128.3 -999 327 -999
2012-03-06 07:37:39 51°13.636 2°56.016 128.3 -999 211 -999
2012-03-06 07:37:44 51°13.636 2°56.015 128.3 0.2 209 -999
2012-03-06 07:37:49 51°13.636 2°56.015 128.3 0.1 210 -999
2012-03-06 07:37:54 51°13.636 2°56.015 128.3 0.3 198 -999
2012-03-06 07:37:59 51°13.636 2°56.015 128.3 0.2 199 -999
2012-03-06 07:38:05 51°13.636 2°56.016 128.3 -999 261 -999
2012-03-06 07:38:09 51°13.637 2°56.016 128.3 0.2 20 -999
2012-03-06 07:38:14 51°13.637 2°56.016 128.3 0.1 16 -999
2012-03-06 07:38:20 51°13.637 2°56.016 128.3 -999 222 -999
2012-03-06 07:38:24 51°13.637 2°56.016 128.3 0.1 26 -999
2012-03-06 07:38:29 51°13.637 2°56.016 128.3 0.1 37 -999
2012-03-06 07:38:34 51°13.636 2°56.016 128.3 -999 181 -999
2012-03-06 07:38:40 51°13.636 2°56.016 128.3 -999 195 -999
2012-03-06 07:38:45 51°13.637 2°56.016 128.3 0.1 13 -999
2012-03-06 07:38:49 51°13.637 2°56.016 128.3 0.2 15 -999
2012-03-06 07:38:54 51°13.637 2°56.016 128.3 0.2 17 -999
2012-03-06 07:38:59 51°13.637 2°56.016 128.3 0.1 6 -999
2012-03-06 07:39:05 51°13.637 2°56.016 128.3 0.1 4 -999
2012-03-06 07:39:09 51°13.637 2°56.016 128.2 0.1 197 -999
2012-03-06 07:39:14 51°13.637 2°56.016 128.2 -999 40 -999
2012-03-06 07:39:19 51°13.637 2°56.016 128.2 0.1 11 -999
2012-03-06 07:39:25 51°13.637 2°56.016 128.1 0.1 17 -999
2012-03-06 07:39:29 51°13.637 2°56.016 128.1 -999 4 -999
2012-03-06 07:39:34 51°13.637 2°56.016 128.1 0.1 1 -999
2012-03-06 07:39:39 51°13.637 2°56.016 128.1 0.1 11 -999
2012-03-06 07:39:44 51°13.637 2°56.016 128.1 -999 25 -999
2012-03-06 07:39:49 51°13.637 2°56.016 128.1 -999 18 -999
2012-03-06 07:39:54 51°13.637 2°56.017 128.1 0.3 14 -999
2012-03-06 07:39:59 51°13.637 2°56.016 128.1 0.1 200 -999
2012-03-06 07:40:04 51°13.636 2°56.016 128.1 0.2 209 -999
2012-03-06 07:40:09 51°13.637 2°56.016 128.1 0.1 221 -999
2012-03-06 07:40:14 51°13.637 2°56.016 128.1 0.1 16 -999
2012-03-06 07:40:20 51°13.637 2°56.016 128.1 0.1 198 -999
2012-03-06 07:40:24 51°13.637 2°56.016 128.1 -999 200 -999
2012-03-06 07:40:29 51°13.637 2°56.016 128.1 -999 11 -999
2012-03-06 07:40:34 51°13.637 2°56.016 128.1 0.1 188 -999
2012-03-06 07:40:40 51°13.637 2°56.017 128.1 0.1 19 -999
2012-03-06 07:40:44 51°13.637 2°56.017 128.1 0.1 24 -999
2012-03-06 07:40:49 51°13.637 2°56.016 128.1 -999 20 -999
2012-03-06 07:40:54 51°13.637 2°56.016 128.1 0.1 25 -999
2012-03-06 07:40:59 51°13.637 2°56.016 128.1 -999 186 -999
2012-03-06 07:41:05 51°13.637 2°56.016 128.1 0.2 202 -999
2012-03-06 07:41:09 51°13.637 2°56.016 128.1 0.1 14 -999
2012-03-06 07:41:14 51°13.637 2°56.016 128.1 0.2 17 -999
2012-03-06 07:41:19 51°13.637 2°56.016 128.1 0.1 13 -999
2012-03-06 07:41:25 51°13.637 2°56.016 128.1 -999 205 -999
2012-03-06 07:41:29 51°13.637 2°56.016 128.1 -999 228 -999
2012-03-06 07:41:34 51°13.637 2°56.016 128.1 0.1 21 -999
2012-03-06 07:41:39 51°13.638 2°56.016 128.1 0.2 27 -999
2012-03-06 07:41:44 51°13.637 2°56.016 128.1 -999 196 -999
2012-03-06 07:41:49 51°13.637 2°56.016 128.1 -999 212 -999
2012-03-06 07:41:54 51°13.637 2°56.016 128.1 0.1 17 -999
2012-03-06 07:41:59 51°13.637 2°56.016 128.1 0.2 17 -999
2012-03-06 07:42:04 51°13.637 2°56.016 128.1 0.2 22 -999
2012-03-06 07:42:09 51°13.637 2°56.016 128.1 0.1 21 -999
2012-03-06 07:42:14 51°13.637 2°56.016 128.1 -999 357 -999
2012-03-06 07:42:19 51°13.637 2°56.016 128.1 -999 306 -999
2012-03-06 07:42:24 51°13.637 2°56.016 128.1 0.1 24 -999
2012-03-06 07:42:29 51°13.637 2°56.016 128.1 0.1 15 -999
2012-03-06 07:42:34 51°13.636 2°56.016 128.1 -999 210 -999
2012-03-06 07:42:40 51°13.636 2°56.016 128.1 -999 332 -999
2012-03-06 07:42:44 51°13.636 2°56.016 128.1 -999 35 -999
2012-03-06 07:42:49 51°13.636 2°56.016 128.1 0.1 25 -999
2012-03-06 07:42:54 51°13.636 2°56.016 128.1 0.1 32 -999
2012-03-06 07:43:00 51°13.636 2°56.016 128.1 0.1 195 -999
2012-03-06 07:43:05 51°13.637 2°56.016 128.1 0.2 11 -999
2012-03-06 07:43:09 51°13.636 2°56.016 128.1 0.1 38 -999
2012-03-06 07:43:14 51°13.636 2°56.016 128.1 -999 189 -999
2012-03-06 07:43:20 51°13.636 2°56.016 128.1 -999 5 -999
2012-03-06 07:43:25 51°13.637 2°56.016 128.1 0.2 15 -999
2012-03-06 07:43:29 51°13.637 2°56.016 128.1 0.1 25 -999
2012-03-06 07:43:34 51°13.637 2°56.016 128.1 0.1 20 -999
2012-03-06 07:43:39 51°13.637 2°56.016 128.1 0.1 2 -999
2012-03-06 07:43:45 51°13.637 2°56.016 128.1 0.1 15 -999
2012-03-06 07:43:49 51°13.636 2°56.015 128.1 0.1 22 -999
2012-03-06 07:43:54 51°13.636 2°56.015 128.1 0.1 6 -999
2012-03-06 07:43:59 51°13.636 2°56.015 128.1 -999 10 -999
2012-03-06 07:44:04 51°13.636 2°56.015 128.1 -999 219 -999
2012-03-06 07:44:09 51°13.636 2°56.015 128.1 -999 348 -999
2012-03-06 07:44:14 51°13.636 2°56.015 128.1 -999 56 -999
2012-03-06 07:44:19 51°13.637 2°56.016 128.1 0.1 15 -999
2012-03-06 07:44:24 51°13.637 2°56.016 128.1 0.2 22 -999
2012-03-06 07:44:29 51°13.637 2°56.016 128.1 0.1 25 -999
2012-03-06 07:44:34 51°13.636 2°56.015 128.1 -999 220 -999
2012-03-06 07:44:40 51°13.636 2°56.015 128.1 -999 204 -999
2012-03-06 07:44:44 51°13.636 2°56.015 128.1 -999 310 -999
2012-03-06 07:44:49 51°13.637 2°56.016 128.1 0.2 32 -999
2012-03-06 07:44:54 51°13.636 2°56.015 128.1 -999 212 -999
2012-03-06 07:45:00 51°13.636 2°56.015 128.1 0.1 195 -999
2012-03-06 07:45:04 51°13.636 2°56.015 128 0.1 213 -999
2012-03-06 07:45:09 51°13.637 2°56.016 128 0.1 27 -999
2012-03-06 07:45:14 51°13.636 2°56.015 128 -999 190 -999
2012-03-06 07:45:20 51°13.636 2°56.016 128 -999 239 -999
2012-03-06 07:45:25 51°13.637 2°56.016 128 0.3 15 -999
2012-03-06 07:45:29 51°13.637 2°56.016 128 0.2 15 -999
2012-03-06 07:45:34 51°13.637 2°56.016 128 0.1 21 -999
2012-03-06 07:45:39 51°13.636 2°56.016 128 -999 84 -999
2012-03-06 07:45:45 51°13.636 2°56.016 128.1 0.1 188 -999
2012-03-06 07:45:49 51°13.636 2°56.016 128.4 -999 113 -999
2012-03-06 07:45:54 51°13.636 2°56.016 128.6 -999 256 -999
2012-03-06 07:45:59 51°13.636 2°56.016 128.6 0.2 356 -999
2012-03-06 07:46:05 51°13.637 2°56.016 128.3 0.4 11 -999
2012-03-06 07:46:09 51°13.637 2°56.015 127.4 0.2 10 -999
2012-03-06 07:46:14 51°13.636 2°56.015 126.9 -999 291 -999
2012-03-06 07:46:19 51°13.637 2°56.015 126.3 0.1 24 -999
2012-03-06 07:46:24 51°13.637 2°56.015 125.9 0.1 24 -999
2012-03-06 07:46:29 51°13.637 2°56.015 125.8 -999 44 -999
2012-03-06 07:46:34 51°13.637 2°56.015 125.7 -999 101 -999
2012-03-06 07:46:39 51°13.637 2°56.015 125.9 0.1 166 -999
2012-03-06 07:46:44 51°13.636 2°56.015 126.4 0.3 180 -999
2012-03-06 07:46:49 51°13.636 2°56.016 127.1 0.2 188 -999
2012-03-06 07:46:54 51°13.637 2°56.016 127.9 0.1 27 -999
2012-03-06 07:46:59 51°13.637 2°56.016 128.4 0.1 9 -999
2012-03-06 07:47:04 51°13.637 2°56.016 128.5 -999 293 -999
2012-03-06 07:47:09 51°13.636 2°56.016 128.5 0.1 210 -999
2012-03-06 07:47:14 51°13.637 2°56.016 128.3 0.1 359 -999
2012-03-06 07:47:20 51°13.637 2°56.016 128.3 -999 220 -999
2012-03-06 07:47:25 51°13.637 2°56.016 128.3 -999 196 -999
2012-03-06 07:47:29 51°13.637 2°56.016 128.2 0.2 15 -999
2012-03-06 07:47:34 51°13.636 2°56.016 128.2 0.2 200 -999
2012-03-06 07:47:39 51°13.636 2°56.016 128.1 0.2 203 -999
2012-03-06 07:47:44 51°13.637 2°56.016 128.1 -999 78 -999
2012-03-06 07:47:49 51°13.637 2°56.016 128.1 0.1 42 -999
2012-03-06 07:47:54 51°13.637 2°56.016 128.1 0.1 38 -999
2012-03-06 07:47:59 51°13.637 2°56.016 128.1 0.1 31 -999
2012-03-06 07:48:04 51°13.637 2°56.016 128.1 0.1 359 -999
2012-03-06 07:48:09 51°13.637 2°56.016 128.1 0.1 7 -999
2012-03-06 07:48:14 51°13.637 2°56.016 128.1 -999 259 -999
2012-03-06 07:48:19 51°13.637 2°56.016 128.1 0.1 17 -999
2012-03-06 07:48:24 51°13.638 2°56.017 128 0.2 30 -999
2012-03-06 07:48:29 51°13.637 2°56.016 128 -999 210 -999
2012-03-06 07:48:34 51°13.637 2°56.016 128 0.1 202 -999
2012-03-06 07:48:39 51°13.637 2°56.016 128 0.1 173 -999
2012-03-06 07:48:44 51°13.637 2°56.016 128 -999 337 -999
2012-03-06 07:48:49 51°13.638 2°56.016 128 0.1 13 -999
2012-03-06 07:48:54 51°13.638 2°56.016 128 0.1 357 -999
2012-03-06 07:48:59 51°13.637 2°56.016 128 0.1 225 -999
2012-03-06 07:49:04 51°13.637 2°56.016 128 0.1 196 -999
2012-03-06 07:49:09 51°13.637 2°56.015 128 0.1 184 -999
2012-03-06 07:49:14 51°13.637 2°56.015 128 -999 255 -999
2012-03-06 07:49:19 51°13.637 2°56.015 128 0.1 214 -999
2012-03-06 07:49:24 51°13.637 2°56.015 128 -999 326 -999
2012-03-06 07:49:29 51°13.637 2°56.015 128 -999 225 -999
2012-03-06 07:49:34 51°13.637 2°56.015 128 -999 134 -999
2012-03-06 07:49:39 51°13.637 2°56.016 128 0.1 7 -999
2012-03-06 07:49:44 51°13.637 2°56.016 128 -999 41 -999
2012-03-06 07:49:49 51°13.637 2°56.016 128 -999 67 -999
2012-03-06 07:49:54 51°13.637 2°56.016 127.9 -999 292 -999
2012-03-06 07:49:59 51°13.638 2°56.016 127.9 -999 337 -999
2012-03-06 07:50:04 51°13.638 2°56.016 127.9 -999 167 -999
2012-03-06 07:50:09 51°13.637 2°56.016 127.9 0.1 170 -999
2012-03-06 07:50:14 51°13.637 2°56.016 127.9 0.1 199 -999
2012-03-06 07:50:19 51°13.637 2°56.016 127.9 0.1 218 -999
2012-03-06 07:50:24 51°13.637 2°56.016 127.9 0.1 206 -999
2012-03-06 07:50:29 51°13.637 2°56.016 127.9 0.2 205 -999
2012-03-06 07:50:34 51°13.637 2°56.016 127.9 0.1 193 -999
2012-03-06 07:50:39 51°13.637 2°56.015 127.9 0.1 199 -999
2012-03-06 07:50:44 51°13.638 2°56.016 127.9 -999 46 -999
2012-03-06 07:50:49 51°13.638 2°56.017 127.9 -999 54 -999
2012-03-06 07:50:54 51°13.638 2°56.017 127.9 0.1 190 -999
2012-03-06 07:50:59 51°13.638 2°56.017 127.9 0.1 202 -999
2012-03-06 07:51:04 51°13.638 2°56.018 127.9 0.1 31 -999
2012-03-06 07:51:09 51°13.638 2°56.017 127.9 0.1 33 -999
2012-03-06 07:51:14 51°13.638 2°56.017 127.9 -999 213 -999
2012-03-06 07:51:19 51°13.638 2°56.017 127.9 0.1 49 -999
2012-03-06 07:51:24 51°13.638 2°56.016 127.9 0.1 182 -999
2012-03-06 07:51:29 51°13.638 2°56.016 127.9 -999 156 -999
2012-03-06 07:51:34 51°13.638 2°56.016 127.9 0.2 26 -999
2012-03-06 07:51:39 51°13.638 2°56.016 127.9 0.1 324 -999
2012-03-06 07:51:44 51°13.638 2°56.016 127.9 0.1 15 -999
2012-03-06 07:51:49 51°13.637 2°56.016 127.9 0.2 200 -999
2012-03-06 07:51:54 51°13.637 2°56.015 127.9 0.3 191 -999
2012-03-06 07:51:59 51°13.636 2°56.015 127.8 0.3 187 -999
2012-03-06 07:52:04 51°13.636 2°56.015 127.8 0.3 189 -999
2012-03-06 07:52:09 51°13.637 2°56.015 127.7 0.1 203 -999
2012-03-06 07:52:14 51°13.637 2°56.015 127.7 -999 137 -999
2012-03-06 07:52:19 51°13.637 2°56.016 127.7 -999 90 -999
2012-03-06 07:52:24 51°13.637 2°56.016 127.7 0.1 206 -999
2012-03-06 07:52:29 51°13.637 2°56.016 127.8 0.1 191 -999
2012-03-06 07:52:34 51°13.638 2°56.016 127.8 -999 257 -999
2012-03-06 07:52:39 51°13.637 2°56.016 127.8 -999 24 -999
2012-03-06 07:52:44 51°13.637 2°56.016 128.1 -999 311 -999
2012-03-06 07:52:49 51°13.637 2°56.015 128.3 0.1 232 -999
2012-03-06 07:52:54 51°13.637 2°56.015 128.5 0.2 221 -999
2012-03-06 07:52:59 51°13.637 2°56.015 128.7 0.1 194 -999
2012-03-06 07:53:04 51°13.637 2°56.015 128.8 0.1 36 -999
2012-03-06 07:53:09 51°13.637 2°56.015 128.9 0.1 79 -999
2012-03-06 07:53:14 51°13.637 2°56.016 128.6 0.1 93 -999
2012-03-06 07:53:19 51°13.637 2°56.016 128.1 0.1 64 -999
2012-03-06 07:53:24 51°13.637 2°56.016 127.4 0.1 50 -999
2012-03-06 07:53:29 51°13.637 2°56.016 126.6 0.1 53 -999
2012-03-06 07:53:34 51°13.637 2°56.016 125.9 0.1 169 -999
2012-03-06 07:53:39 51°13.637 2°56.016 125.3 0.1 16 -999
2012-03-06 07:53:44 51°13.637 2°56.016 124.9 0.1 12 -999
2012-03-06 07:53:49 51°13.637 2°56.016 124.6 -999 29 -999
2012-03-06 07:53:54 51°13.637 2°56.016 124.3 0.1 46 -999
2012-03-06 07:53:59 51°13.637 2°56.016 124 0.1 53 -999
2012-03-06 07:54:04 51°13.637 2°56.016 123.5 0.1 195 -999
2012-03-06 07:54:09 51°13.636 2°56.016 122.9 0.1 211 -999
2012-03-06 07:54:14 51°13.637 2°56.016 122.3 0.1 204 -999
2012-03-06 07:54:19 51°13.637 2°56.016 121.8 -999 168 -999
2012-03-06 07:54:24 51°13.637 2°56.016 121.3 -999 120 -999
2012-03-06 07:54:29 51°13.636 2°56.016 120.9 0.1 188 -999
2012-03-06 07:54:34 51°13.637 2°56.016 120.6 -999 358 -999
2012-03-06 07:54:39 51°13.636 2°56.016 120.2 0.1 191 -999
2012-03-06 07:54:44 51°13.636 2°56.016 119.6 0.1 187 -999
2012-03-06 07:54:49 51°13.636 2°56.016 119.1 0.1 197 -999
2012-03-06 07:54:54 51°13.636 2°56.016 118.4 0.1 205 -999
2012-03-06 07:54:59 51°13.636 2°56.016 117.8 0.1 214 -999
2012-03-06 07:55:04 51°13.637 2°56.016 117.5 -999 2 -999
2012-03-06 07:55:09 51°13.637 2°56.016 117.3 0.1 23 -999
2012-03-06 07:55:14 51°13.637 2°56.016 117.2 0.1 17 -999
2012-03-06 07:55:19 51°13.636 2°56.016 117 -999 172 -999
2012-03-06 07:55:24 51°13.636 2°56.015 116.8 0.2 214 -999
2012-03-06 07:55:29 51°13.636 2°56.016 116.3 -999 346 -999
2012-03-06 07:55:34 51°13.635 2°56.016 115.8 -999 115 -999
2012-03-06 07:55:39 51°13.635 2°56.016 115.2 -999 180 -999
2012-03-06 07:55:44 51°13.635 2°56.016 114.4 0.1 202 -999
2012-03-06 07:55:49 51°13.635 2°56.016 113.6 0.1 200 -999
2012-03-06 07:55:54 51°13.635 2°56.016 112.9 0.2 205 -999
2012-03-06 07:55:59 51°13.635 2°56.016 112.2 0.1 205 -999
2012-03-06 07:56:04 51°13.635 2°56.016 111.6 0.1 204 8
2012-03-06 07:56:09 51°13.635 2°56.016 111.1 0.1 193 8
2012-03-06 07:56:14 51°13.635 2°56.016 110.5 -999 10 -999
2012-03-06 07:56:19 51°13.634 2°56.016 109.8 0.1 180 -999
2012-03-06 07:56:24 51°13.634 2°56.016 109.4 0.1 182 -999
2012-03-06 07:56:29 51°13.634 2°56.015 109 0.1 201 -999
2012-03-06 07:56:34 51°13.634 2°56.015 108.5 0.1 201 -999
2012-03-06 07:56:39 51°13.634 2°56.016 108.1 0.1 222 8.1
2012-03-06 07:56:44 51°13.634 2°56.016 107.6 -999 150 -999
2012-03-06 07:56:49 51°13.634 2°56.015 107.1 0.1 201 -999
2012-03-06 07:56:53 51°13.634 2°56.015 106.8 0.1 351 8.1
2012-03-06 07:56:59 51°13.635 2°56.015 106.7 0.4 331 -999
2012-03-06 07:57:04 51°13.635 2°56.013 106.9 0.8 302 -999
2012-03-06 07:57:09 51°13.636 2°56.011 107.5 1.4 294 -999
2012-03-06 07:57:14 51°13.637 2°56.006 107.4 2.1 290 -999
2012-03-06 07:57:19 51°13.638 2°56.001 107.2 2.8 292 -999
2012-03-06 07:57:24 51°13.64 2°55.994 106.8 3.4 290 -999
2012-03-06 07:57:29 51°13.643 2°55.986 107.2 3.9 291 -999
2012-03-06 07:57:34 51°13.645 2°55.977 108.6 4.4 291 -999
2012-03-06 07:57:39 51°13.648 2°55.967 109.4 4.8 294 -999
2012-03-06 07:57:44 51°13.65 2°55.956 109.7 5.1 294 -999
2012-03-06 07:57:49 51°13.653 2°55.945 109.1 5.3 292 -999
2012-03-06 07:57:54 51°13.655 2°55.934 108.3 5.4 289 -999
2012-03-06 07:57:59 51°13.658 2°55.924 107.4 5.5 292 -999
2012-03-06 07:58:04 51°13.66 2°55.913 106.2 5.2 290 -999
2012-03-06 07:58:09 51°13.662 2°55.902 104.6 4.9 287 -999
2012-03-06 07:58:14 51°13.664 2°55.894 102.4 4.1 287 -999
2012-03-06 07:58:19 51°13.666 2°55.887 101 2.8 292 -999
2012-03-06 07:58:24 51°13.667 2°55.883 101.7 2.1 289 -999
2012-03-06 07:58:29 51°13.668 2°55.88 103.5 1.5 294 -999
2012-03-06 07:58:33 51°13.668 2°55.878 105.7 1 287 -999
2012-03-06 07:58:39 51°13.669 2°55.876 107.3 1.2 289 -999
2012-03-06 07:58:44 51°13.67 2°55.872 108.2 1.8 294 -999
2012-03-06 07:58:49 51°13.671 2°55.868 108 2.1 288 -999
2012-03-06 07:58:54 51°13.672 2°55.863 107 2.4 289 -999
2012-03-06 07:58:59 51°13.673 2°55.857 106.4 2.8 286 -999
2012-03-06 07:59:04 51°13.674 2°55.851 106.2 3.1 289 4.8
2012-03-06 07:59:09 51°13.676 2°55.844 106.8 3.4 289 -999
2012-03-06 07:59:14 51°13.677 2°55.837 108.2 3.6 290 -999
2012-03-06 07:59:19 51°13.679 2°55.829 109.6 3.8 291 -999
2012-03-06 07:59:24 51°13.682 2°55.821 111.9 4 293 -999
2012-03-06 07:59:29 51°13.684 2°55.813 114 4 295 -999
2012-03-06 07:59:34 51°13.687 2°55.805 116.2 4.2 297 -999
2012-03-06 07:59:39 51°13.69 2°55.796 117.6 4.3 299 -999
2012-03-06 07:59:44 51°13.693 2°55.788 119.1 4.5 301 -999
2012-03-06 07:59:49 51°13.696 2°55.779 120.7 4.6 300 -999
2012-03-06 07:59:54 51°13.7 2°55.77 122 4.6 302 -999
2012-03-06 07:59:59 51°13.703 2°55.761 123.1 4.7 303 -999
2012-03-06 08:00:04 51°13.707 2°55.753 124.7 4.8 306 -999
2012-03-06 08:00:09 51°13.711 2°55.745 126.3 4.7 306 -999
2012-03-06 08:00:14 51°13.715 2°55.736 127.7 4.7 305 -999
2012-03-06 08:00:19 51°13.719 2°55.728 128.4 4.8 308 -999
2012-03-06 08:00:24 51°13.723 2°55.719 130.7 4.9 308 -999
2012-03-06 08:00:29 51°13.728 2°55.711 132.6 5 311 -999
2012-03-06 08:00:34 51°13.733 2°55.703 135.1 5.1 314 -999
2012-03-06 08:00:39 51°13.738 2°55.695 138 5.1 316 -999
2012-03-06 08:00:44 51°13.743 2°55.688 141.4 5.1 318 -999
2012-03-06 08:00:49 51°13.749 2°55.68 143.5 5.1 318 -999
2012-03-06 08:00:54 51°13.754 2°55.673 146.3 5.2 320 -999
2012-03-06 08:00:59 51°13.761 2°55.667 149 5.3 325 -999
2012-03-06 08:01:04 51°13.767 2°55.661 152 5.3 328 -999
2012-03-06 08:01:09 51°13.773 2°55.654 155.2 5.2 328 -999
2012-03-06 08:01:14 51°13.779 2°55.649 158.2 5.3 332 -999
2012-03-06 08:01:19 51°13.786 2°55.645 161.2 5.4 336 -999
2012-03-06 08:01:24 51°13.793 2°55.64 164.3 5.4 339 -999
2012-03-06 08:01:29 51°13.8 2°55.636 167 5.4 340 -999
2012-03-06 08:01:34 51°13.808 2°55.634 169.1 5.6 345 -999
2012-03-06 08:01:39 51°13.816 2°55.631 171.5 5.7 348 -999
2012-03-06 08:01:44 51°13.824 2°55.628 174.7 5.6 349 -999
2012-03-06 08:01:49 51°13.831 2°55.626 177.2 5.5 350 -999
2012-03-06 08:01:54 51°13.839 2°55.625 178.7 5.7 353 -999
2012-03-06 08:01:59 51°13.848 2°55.625 180.4 5.9 356 -999
2012-03-06 08:02:04 51°13.856 2°55.624 181.9 6 358 -999
2012-03-06 08:02:09 51°13.864 2°55.624 183.5 5.9 358 -999
2012-03-06 08:02:14 51°13.873 2°55.624 184.4 6 -999 -999
2012-03-06 08:02:19 51°13.881 2°55.624 185.6 6 1 -999
2012-03-06 08:02:24 51°13.889 2°55.625 187.2 6 4 -999
2012-03-06 08:02:29 51°13.896 2°55.626 189.6 5.4 4 -999
2012-03-06 08:02:34 51°13.904 2°55.628 192.1 5.2 8 -999
2012-03-06 08:02:39 51°13.911 2°55.63 194.9 5 11 -999
2012-03-06 08:02:44 51°13.917 2°55.633 197.8 4.8 14 -999
2012-03-06 08:02:49 51°13.923 2°55.636 200.7 4.7 16 -999
2012-03-06 08:02:54 51°13.929 2°55.639 203.5 4.4 18 -999
2012-03-06 08:02:59 51°13.935 2°55.643 206.3 4.7 22 -999
2012-03-06 08:03:04 51°13.94 2°55.646 209.1 4.1 24 -999
2012-03-06 08:03:09 51°13.945 2°55.65 211.4 3.9 25 -999
2012-03-06 08:03:14 51°13.949 2°55.654 213.6 3.5 27 -999
2012-03-06 08:03:19 51°13.954 2°55.657 215.7 3.3 27 -999
2012-03-06 08:03:24 51°13.958 2°55.661 217.7 3 31 -999
2012-03-06 08:03:29 51°13.961 2°55.663 220.4 2.5 31 10.8
2012-03-06 08:03:34 51°13.962 2°55.665 222.8 1.7 32 -999
2012-03-06 08:03:39 51°13.964 2°55.667 225.8 1.3 32 -999
2012-03-06 08:03:44 51°13.966 2°55.668 229.9 0.8 26 -999
2012-03-06 08:03:49 51°13.966 2°55.668 233.5 0.3 13 -999
2012-03-06 08:03:54 51°13.967 2°55.668 237.2 0.4 329 -999
2012-03-06 08:03:59 51°13.967 2°55.666 241.2 0.8 268 -999
2012-03-06 08:04:04 51°13.966 2°55.663 246.6 1.4 273 10.8
2012-03-06 08:04:09 51°13.966 2°55.659 253.1 1.8 274 -999
2012-03-06 08:04:14 51°13.966 2°55.653 260.4 2.3 274 -999
2012-03-06 08:04:19 51°13.966 2°55.647 268.4 2.7 281 -999
2012-03-06 08:04:24 51°13.968 2°55.641 276.7 3.1 284 10.7
2012-03-06 08:04:29 51°13.969 2°55.633 285 3.5 292 -999
2012-03-06 08:04:34 51°13.972 2°55.626 292 3.9 296 -999
2012-03-06 08:04:39 51°13.975 2°55.617 297.6 4.3 300 -999
2012-03-06 08:04:44 51°13.979 2°55.609 302 4.7 304 10.7
2012-03-06 08:04:49 51°13.983 2°55.6 305.3 5.2 308 -999
2012-03-06 08:04:54 51°13.989 2°55.591 307.8 5.6 312 10.7
2012-03-06 08:04:59 51°13.994 2°55.58 309.1 6 311 -999
2012-03-06 08:05:04 51°14 2°55.57 310.7 6.3 312 -999
2012-03-06 08:05:09 51°14.006 2°55.559 312.9 6.7 314 -999
2012-03-06 08:05:14 51°14.013 2°55.549 315.1 7 317 -999
2012-03-06 08:05:19 51°14.021 2°55.538 317.3 7.3 319 -999
2012-03-06 08:05:24 51°14.029 2°55.528 319.5 7.4 321 -999
2012-03-06 08:05:29 51°14.037 2°55.518 321.8 7.5 323 -999
2012-03-06 08:05:34 51°14.046 2°55.508 324.1 7.8 326 10.7
2012-03-06 08:05:39 51°14.055 2°55.498 325.9 7.8 325 -999
2012-03-06 08:05:44 51°14.064 2°55.488 326.7 8 326 -999
2012-03-06 08:05:49 51°14.074 2°55.479 327.9 8.2 328 -999
2012-03-06 08:05:54 51°14.084 2°55.469 328.4 8.5 328 -999
2012-03-06 08:05:59 51°14.094 2°55.46 328.6 8.7 330 -999
2012-03-06 08:06:04 51°14.105 2°55.45 328.9 8.9 329 -999
2012-03-06 08:06:09 51°14.115 2°55.44 329.3 8.9 330 -999
2012-03-06 08:06:14 51°14.125 2°55.429 329 8.9 327 -999
2012-03-06 08:06:19 51°14.136 2°55.418 329.3 9 329 -999
2012-03-06 08:06:24 51°14.147 2°55.408 330.2 9.1 328 -999
2012-03-06 08:06:29 51°14.157 2°55.398 330.4 9.1 329 -999
2012-03-06 08:06:34 51°14.168 2°55.387 329.6 9.1 327 -999
2012-03-06 08:06:39 51°14.179 2°55.376 328.4 9.3 327 -999
2012-03-06 08:06:44 51°14.189 2°55.364 328.2 9.2 327 -999
2012-03-06 08:06:49 51°14.2 2°55.353 328.5 9.2 326 -999
2012-03-06 08:06:54 51°14.211 2°55.342 329.2 9.3 327 -999
2012-03-06 08:06:59 51°14.222 2°55.33 329.6 9.3 327 -999
2012-03-06 08:07:04 51°14.232 2°55.319 329.3 9.3 326 -999
2012-03-06 08:07:09 51°14.243 2°55.307 327.8 9.4 325 -999
2012-03-06 08:07:14 51°14.253 2°55.295 327 9.4 326 -999
2012-03-06 08:07:19 51°14.264 2°55.283 327.3 9.4 325 -999
2012-03-06 08:07:24 51°14.275 2°55.272 328.8 9.5 327 -999
2012-03-06 08:07:29 51°14.286 2°55.261 329.7 9.6 327 -999
2012-03-06 08:07:34 51°14.297 2°55.248 329.3 9.6 326 -999
2012-03-06 08:07:39 51°14.308 2°55.236 328.2 9.7 325 -999
2012-03-06 08:07:44 51°14.32 2°55.226 329.2 9.8 329 -999
2012-03-06 08:07:49 51°14.333 2°55.215 330.6 10 330 -999
2012-03-06 08:07:53 51°14.342 2°55.206 331.3 10.1 330 10.7
2012-03-06 08:07:59 51°14.356 2°55.192 331.3 9.9 328 -999
2012-03-06 08:08:04 51°14.367 2°55.18 330.9 9.8 327 10.5
2012-03-06 08:08:09 51°14.378 2°55.167 329.6 9.8 327 -999
2012-03-06 08:08:13 51°14.388 2°55.159 330.1 9.8 328 10.1
2012-03-06 08:08:18 51°14.4 2°55.148 331.9 9.8 328 10.6
2012-03-06 08:08:24 51°14.414 2°55.134 332.5 10 327 11
2012-03-06 08:08:29 51°14.427 2°55.123 331 10.1 329 -999
2012-03-06 08:08:33 51°14.437 2°55.114 330.3 10.2 329 10.6
2012-03-06 08:08:39 51°14.45 2°55.099 330.3 10 328 -999
2012-03-06 08:08:44 51°14.462 2°55.087 330.3 10 328 -999
2012-03-06 08:08:49 51°14.474 2°55.076 330.2 10.1 328 -999
2012-03-06 08:08:54 51°14.486 2°55.064 330.4 10.1 328 -999
2012-03-06 08:08:59 51°14.498 2°55.052 330.1 10.2 328 -999
2012-03-06 08:09:04 51°14.51 2°55.04 330.1 10.2 329 -999
2012-03-06 08:09:09 51°14.521 2°55.028 330.6 10.1 328 11.1
2012-03-06 08:09:13 51°14.531 2°55.018 330.5 10.2 327 11.6
2012-03-06 08:09:18 51°14.543 2°55.006 329.6 10.2 327 11.8
2012-03-06 08:09:23 51°14.555 2°54.994 329.8 10.2 327 11.9
2012-03-06 08:09:28 51°14.567 2°54.981 330 10.4 325 12.1
2012-03-06 08:09:33 51°14.578 2°54.967 328.8 10.3 324 12.3
2012-03-06 08:09:37 51°14.587 2°54.956 327.9 10.3 323 11.9
2012-03-06 08:09:42 51°14.599 2°54.942 327.2 10.4 322 12.3
2012-03-06 08:09:47 51°14.61 2°54.927 325.5 10.5 321 12.5
2012-03-06 08:09:52 51°14.621 2°54.912 324.1 10.6 319 12.5
2012-03-06 08:09:57 51°14.631 2°54.897 322.8 10.5 319 12.1
2012-03-06 08:10:01 51°14.641 2°54.884 322.5 10.6 318 12.3
2012-03-06 08:10:06 51°14.652 2°54.869 322.4 10.7 319 12.2
2012-03-06 08:10:11 51°14.663 2°54.853 322.1 10.7 317 12.2
2012-03-06 08:10:16 51°14.674 2°54.837 321.5 10.8 318 12.1
2012-03-06 08:10:21 51°14.685 2°54.822 321.7 10.8 319 11.6
2012-03-06 08:10:25 51°14.694 2°54.809 322.4 10.6 320 11.9
2012-03-06 08:10:30 51°14.705 2°54.794 323.5 10.8 320 12.2
2012-03-06 08:10:36 51°14.719 2°54.776 325.1 10.6 322 11.7
2012-03-06 08:10:41 51°14.731 2°54.762 326.4 10.8 323 12.1
2012-03-06 08:10:45 51°14.741 2°54.751 328 10.8 324 11.9
2012-03-06 08:10:51 51°14.755 2°54.734 328.6 10.7 323 11.5
2012-03-06 08:10:56 51°14.767 2°54.72 328.3 10.7 323 11.8
2012-03-06 08:11:01 51°14.778 2°54.705 328 10.7 322 11.9
2012-03-06 08:11:05 51°14.788 2°54.693 327.5 10.8 322 12.1
2012-03-06 08:11:11 51°14.802 2°54.675 326.9 10.8 322 12
2012-03-06 08:11:16 51°14.814 2°54.66 326.4 10.9 321 12.3
2012-03-06 08:11:21 51°14.825 2°54.645 326 10.9 320 12.1
2012-03-06 08:11:25 51°14.835 2°54.633 325.4 11 321 12.1
2012-03-06 08:11:31 51°14.849 2°54.614 325.1 11 321 12.1
2012-03-06 08:11:36 51°14.862 2°54.6 325.1 11 323 11.9
2012-03-06 08:11:41 51°14.873 2°54.585 326.2 10.9 323 12.4
2012-03-06 08:11:45 51°14.882 2°54.572 327.8 10.7 322 12.2
2012-03-06 08:11:50 51°14.896 2°54.56 328.7 11 327 12.2
2012-03-06 08:11:56 51°14.911 2°54.544 330.7 10.9 328 12.1
2012-03-06 08:12:01 51°14.924 2°54.532 332.3 10.8 329 12
2012-03-06 08:12:05 51°14.934 2°54.523 334.4 10.8 331 12
2012-03-06 08:12:11 51°14.951 2°54.51 336.3 10.8 334 12
2012-03-06 08:12:16 51°14.964 2°54.501 339 10.8 336 11.9
2012-03-06 08:12:21 51°14.978 2°54.492 341.1 10.7 339 11.7
2012-03-06 08:12:25 51°14.99 2°54.486 343.8 10.9 342 11.7
2012-03-06 08:12:31 51°15.006 2°54.479 346.6 10.6 346 12.3
2012-03-06 08:12:36 51°15.02 2°54.473 349.8 10.3 347 11.6
2012-03-06 08:12:41 51°15.034 2°54.469 352.7 10.3 349 11.8
2012-03-06 08:12:45 51°15.044 2°54.465 354.3 10.1 349 11.8
2012-03-06 08:12:48 51°13.592 2°56.194 125.6 -999 -999 -999
2012-03-06 08:12:48 51°13.592 2°56.194 125.7 -999 -999 -999
2012-03-06 08:12:48 51°13.592 2°56.194 125.7 -999 -999 -999
2012-03-06 08:12:48 51°13.592 2°56.194 125.7 -999 -999 -999
2012-03-06 08:12:48 51°13.592 2°56.194 125.7 -999 -999 -999
2012-03-06 08:12:48 51°13.592 2°56.194 125.7 -999 -999 -999
2012-03-06 08:12:48 51°13.592 2°56.194 125.7 -999 -999 -999
2012-03-06 08:12:48 51°13.592 2°56.194 125.7 -999 -999 -999
2012-03-06 08:12:48 51°13.592 2°56.194 125.7 -999 -999 -999
2012-03-06 08:12:48 51°13.592 2°56.194 125.7 -999 -999 -999
2012-03-06 08:12:48 51°13.592 2°56.194 125.6 -999 -999 -999
2012-03-06 08:12:48 51°13.592 2°56.194 125.6 -999 -999 -999
2012-03-06 08:12:50 51°15.058 2°54.461 354.8 10.1 349 11.2
2012-03-06 08:12:56 51°15.075 2°54.456 355 10 350 10.9
2012-03-06 08:13:01 51°15.089 2°54.453 355.5 10.1 350 11.2
2012-03-06 08:13:05 51°15.1 2°54.45 355.6 10 350 10.4
2012-03-06 08:13:11 51°15.117 2°54.445 355.7 10.1 349 10.1
2012-03-06 08:13:16 51°15.131 2°54.441 355.4 10.1 350 10.2
2012-03-06 08:13:21 51°15.145 2°54.437 356 10.1 351 10.2
2012-03-06 08:13:25 51°15.156 2°54.434 356.7 10 351 9.9
2012-03-06 08:13:31 51°15.173 2°54.43 357.2 10.2 350 9.7
2012-03-06 08:13:36 51°15.187 2°54.426 356.7 10.3 350 9.6
2012-03-06 08:13:41 51°15.201 2°54.422 356 10.3 350 9.3
2012-03-06 08:13:45 51°15.212 2°54.418 355.2 10.3 349 8.6
2012-03-06 08:13:51 51°15.228 2°54.411 354.5 9.8 347 9.1
2012-03-06 08:13:56 51°15.241 2°54.406 354.4 9.8 346 9.4
2012-03-06 08:14:01 51°15.255 2°54.402 354.2 10.1 347 9.4
2012-03-06 08:14:05 51°15.266 2°54.398 353.5 10.1 346 9.6
2012-03-06 08:14:11 51°15.282 2°54.391 353.4 10.1 346 9.2
2012-03-06 08:14:16 51°15.297 2°54.386 353.1 10.2 347 9.3
2012-03-06 08:14:21 51°15.31 2°54.381 353.2 10.2 347 9.8
2012-03-06 08:14:25 51°15.321 2°54.377 353.2 10.1 347 10.1
2012-03-06 08:14:31 51°15.338 2°54.371 352.9 10.2 347 9.7
2012-03-06 08:14:36 51°15.351 2°54.366 352.8 10.1 347 9.8
2012-03-06 08:14:41 51°15.365 2°54.362 353.5 10.1 349 9.9
2012-03-06 08:14:45 51°15.377 2°54.359 355.1 10.2 351 10.1
2012-03-06 08:14:51 51°15.393 2°54.355 356.3 10.1 352 9.6
2012-03-06 08:14:56 51°15.407 2°54.353 357.6 10.1 353 10.3
2012-03-06 08:15:01 51°15.421 2°54.351 359.4 10.1 356 10.1
2012-03-06 08:15:05 51°15.433 2°54.35 1.3 10.1 357 10.3
2012-03-06 08:15:11 51°15.45 2°54.35 3.4 10.2 -999 10.2
2012-03-06 08:15:16 51°15.464 2°54.35 5.2 10.2 359 10.1
2012-03-06 08:15:21 51°15.477 2°54.349 5.3 10.1 359 10
2012-03-06 08:15:25 51°15.489 2°54.349 5.2 10.1 358 10.4
2012-03-06 08:15:30 51°15.503 2°54.348 4.5 10.2 358 10.6
2012-03-06 08:15:36 51°15.52 2°54.346 3.7 10.2 356 10.6
2012-03-06 08:15:41 51°15.534 2°54.344 2.6 10.3 355 10.7
2012-03-06 08:15:45 51°15.546 2°54.344 1.6 10.6 356 10.8
2012-03-06 08:15:51 51°15.563 2°54.34 0.6 10.4 354 10.7
2012-03-06 08:15:56 51°15.577 2°54.337 359.8 10.3 352 10.7
2012-03-06 08:16:01 51°15.591 2°54.333 358.8 10.3 350 10.8
2012-03-06 08:16:05 51°15.602 2°54.331 357.6 10.3 351 11.1
2012-03-06 08:16:11 51°15.619 2°54.326 356.6 10.3 349 10.7
2012-03-06 08:16:16 51°15.633 2°54.321 355.8 10.4 349 10.8
2012-03-06 08:16:21 51°15.647 2°54.317 355.2 10.5 350 10.9
2012-03-06 08:16:25 51°15.658 2°54.314 355.8 10.2 350 10.5
2012-03-06 08:16:30 51°15.672 2°54.311 356.9 10.1 351 11.3
2012-03-06 08:16:36 51°15.689 2°54.307 357.9 10.2 352 10.8
2012-03-06 08:16:41 51°15.703 2°54.304 358.6 10 353 10.5
2012-03-06 08:16:45 51°15.714 2°54.303 359.5 10.2 355 10.3
2012-03-06 08:16:51 51°15.73 2°54.302 1.5 9.8 358 10.8
2012-03-06 08:16:56 51°15.744 2°54.301 3 9.8 358 10.7
2012-03-06 08:17:01 51°15.758 2°54.301 4.3 9.8 -999 11.2
2012-03-06 08:17:05 51°15.769 2°54.303 5.6 9.9 2 11
2012-03-06 08:17:11 51°15.785 2°54.303 6.6 9.6 2 10.6
2012-03-06 08:17:16 51°15.798 2°54.305 7.8 9.8 4 11.3
2012-03-06 08:17:21 51°15.812 2°54.307 8.9 9.7 5 10.9
2012-03-06 08:17:25 51°15.823 2°54.309 10.1 9.7 7 10.8
2012-03-06 08:17:31 51°15.839 2°54.313 11.7 9.8 7 11
2012-03-06 08:17:36 51°15.852 2°54.316 12.6 9.8 8 11.1
2012-03-06 08:17:41 51°15.866 2°54.319 13.3 9.6 7 10.8
2012-03-06 08:17:45 51°15.877 2°54.321 13.5 9.7 6 11.4
2012-03-06 08:17:50 51°15.89 2°54.322 12.3 9.7 4 11.3
2012-03-06 08:17:56 51°15.906 2°54.324 10.5 9.8 3 11.1
2012-03-06 08:18:01 51°15.92 2°54.324 8.9 9.8 1 11.1
2012-03-06 08:18:05 51°15.931 2°54.325 8 9.9 1 11
2012-03-06 08:18:11 51°15.947 2°54.325 7.2 9.8 -999 11.1
2012-03-06 08:18:16 51°15.961 2°54.324 6.5 9.8 359 11.2
2012-03-06 08:18:21 51°15.975 2°54.324 5.3 9.8 359 10.7
2012-03-06 08:18:25 51°15.986 2°54.323 4.2 9.7 358 11.3
2012-03-06 08:18:31 51°16.002 2°54.321 3.3 9.8 356 11.3
2012-03-06 08:18:36 51°16.017 2°54.321 2.2 10.1 356 11.4
2012-03-06 08:18:41 51°16.03 2°54.318 1.3 9.9 355 11
2012-03-06 08:18:45 51°16.041 2°54.317 0.6 9.9 355 11.2
2012-03-06 08:18:50 51°16.055 2°54.315 0.1 10 354 11.5
2012-03-06 08:18:56 51°16.071 2°54.311 358.8 9.9 352 11.3
2012-03-06 08:19:01 51°16.085 2°54.306 357.2 9.9 349 11.7
2012-03-06 08:19:05 51°16.095 2°54.303 355.5 9.8 349 11.8
2012-03-06 08:19:10 51°16.109 2°54.299 353.6 10.1 347 11.6
2012-03-06 08:19:16 51°16.125 2°54.293 352.9 9.8 347 11.2
2012-03-06 08:19:21 51°16.138 2°54.288 353.5 9.8 348 11.5
2012-03-06 08:19:25 51°16.149 2°54.285 354 9.8 348 11.9
2012-03-06 08:19:31 51°16.166 2°54.28 354.4 10 350 11.6
2012-03-06 08:19:36 51°16.179 2°54.277 355 9.9 351 11.5
2012-03-06 08:19:41 51°16.193 2°54.275 356.9 9.6 354 11.4
2012-03-06 08:19:45 51°16.203 2°54.274 359 8.9 356 11.7
2012-03-06 08:19:51 51°16.216 2°54.274 1.3 8 -999 12
2012-03-06 08:19:56 51°16.227 2°54.275 4.7 7.4 4 12
2012-03-06 08:20:01 51°16.236 2°54.277 8.4 6.9 8 12
2012-03-06 08:20:05 51°16.243 2°54.28 12.4 6.5 12 11.9
2012-03-06 08:20:11 51°16.253 2°54.284 15.7 6.2 16 12
2012-03-06 08:20:16 51°16.26 2°54.288 19.2 5.7 19 12.1
2012-03-06 08:20:21 51°16.267 2°54.292 22 5.4 22 11.9
2012-03-06 08:20:25 51°16.272 2°54.296 25.2 5.2 24 11.8
2012-03-06 08:20:30 51°16.278 2°54.301 27.9 4.8 28 12
2012-03-06 08:20:36 51°16.286 2°54.308 30.6 4.8 32 11.7
2012-03-06 08:20:41 51°16.291 2°54.313 32.3 4.5 33 11.9
2012-03-06 08:20:45 51°16.294 2°54.318 35.2 4.3 40 12.5
2012-03-06 08:20:50 51°16.299 2°54.324 39.4 4 44 12
2012-03-06 08:20:56 51°16.303 2°54.332 44.7 3.8 50 11.8
2012-03-06 08:21:01 51°16.306 2°54.339 50 3.6 58 11.8
2012-03-06 08:21:05 51°16.308 2°54.344 55.8 3.5 62 12.1
2012-03-06 08:21:10 51°16.31 2°54.351 60.9 3.3 70 11.9
2012-03-06 08:21:16 51°16.311 2°54.359 66.2 3.3 76 11.6
2012-03-06 08:21:21 51°16.311 2°54.367 71.8 3.2 85 11.9
2012-03-06 08:21:25 51°16.311 2°54.373 76.6 3.1 88 12.1
2012-03-06 08:21:30 51°16.312 2°54.38 81.1 2.9 90 12.1
2012-03-06 08:21:36 51°16.311 2°54.386 84.4 2.5 100 12.4
2012-03-06 08:21:41 51°16.31 2°54.391 87.3 2.3 104 12.2
2012-03-06 08:21:45 51°16.309 2°54.394 91.7 2.1 110 11.9
2012-03-06 08:21:51 51°16.308 2°54.398 96.2 1.7 117 11.9
2012-03-06 08:21:56 51°16.306 2°54.401 100.4 1.6 124 11.7
2012-03-06 08:22:01 51°16.305 2°54.403 104.8 1.4 133 11.8
2012-03-06 08:22:05 51°16.304 2°54.405 109 1.1 134 12.1
2012-03-06 08:22:11 51°16.303 2°54.405 112.9 0.9 167 12
2012-03-06 08:22:16 51°16.302 2°54.405 116.2 0.7 183 12.3
2012-03-06 08:22:21 51°16.301 2°54.406 119.3 0.6 164 11.9
2012-03-06 08:22:25 51°16.301 2°54.406 122.7 0.6 155 11.8
2012-03-06 08:22:31 51°16.299 2°54.406 125.5 0.7 175 12
2012-03-06 08:22:36 51°16.298 2°54.406 127.8 0.6 171 12.1
2012-03-06 08:22:41 51°16.297 2°54.406 130 0.7 180 12
2012-03-06 08:22:45 51°16.296 2°54.406 132.3 0.6 176 12
2012-03-06 08:22:50 51°16.295 2°54.406 134.8 0.8 186 12
2012-03-06 08:22:56 51°16.294 2°54.406 137.2 0.8 184 11.8
2012-03-06 08:23:01 51°16.293 2°54.406 139.4 0.7 178 11.8
2012-03-06 08:23:05 51°16.292 2°54.406 141.5 0.7 176 12
2012-03-06 08:23:10 51°16.291 2°54.406 143.5 0.8 180 12
2012-03-06 08:23:16 51°16.289 2°54.405 145.2 0.9 186 11.9
2012-03-06 08:23:21 51°16.288 2°54.405 147.5 0.8 187 12
2012-03-06 08:23:25 51°16.287 2°54.404 149.6 1 190 12.1
2012-03-06 08:23:31 51°16.285 2°54.404 151.1 0.9 193 12
2012-03-06 08:23:36 51°16.284 2°54.404 152.8 1 193 12
2012-03-06 08:23:41 51°16.283 2°54.404 154.7 0.8 183 12.2
2012-03-06 08:23:45 51°16.282 2°54.403 156 0.9 192 12
2012-03-06 08:23:51 51°16.28 2°54.403 156.9 0.9 189 12.1
2012-03-06 08:23:56 51°16.279 2°54.402 158.3 0.8 188 12.1
2012-03-06 08:24:01 51°16.278 2°54.402 159.1 0.8 187 12
2012-03-06 08:24:05 51°16.277 2°54.402 160 0.8 190 12.3
2012-03-06 08:24:10 51°16.275 2°54.401 160.6 1.1 195 12.2
2012-03-06 08:24:16 51°16.273 2°54.4 161.3 1.2 197 11.9
2012-03-06 08:24:21 51°16.273 2°54.401 161.9 0.7 186 12.2
2012-03-06 08:24:25 51°16.272 2°54.4 162.2 0.7 188 12.1
2012-03-06 08:24:31 51°16.27 2°54.399 162.4 0.9 192 12
2012-03-06 08:24:36 51°16.269 2°54.399 162.7 1 198 12.1
2012-03-06 08:24:41 51°16.267 2°54.398 162.9 1 192 12
2012-03-06 08:24:45 51°16.266 2°54.397 163 1.2 204 11.9
2012-03-06 08:24:51 51°16.265 2°54.397 163.1 1.1 204 12.3
2012-03-06 08:24:56 51°16.263 2°54.396 163.2 1 196 12
2012-03-06 08:25:01 51°16.262 2°54.396 163.2 1.2 194 11.8
2012-03-06 08:25:05 51°16.261 2°54.396 163.1 1 197 12
2012-03-06 08:25:11 51°16.259 2°54.395 163.1 1 196 12.2
2012-03-06 08:25:16 51°16.258 2°54.395 162.7 0.9 192 12.1
2012-03-06 08:25:21 51°16.257 2°54.395 162.6 0.8 190 12
2012-03-06 08:25:25 51°16.256 2°54.394 162.5 0.9 194 11.9
2012-03-06 08:25:30 51°16.255 2°54.393 162.3 1 195 11.9
2012-03-06 08:25:36 51°16.253 2°54.393 162.3 0.8 188 12.1
2012-03-06 08:25:41 51°16.252 2°54.393 162.1 0.8 188 11.9
2012-03-06 08:25:45 51°16.251 2°54.392 161.9 1 194 11.8
2012-03-06 08:25:51 51°16.249 2°54.391 162.2 0.9 194 11.8
2012-03-06 08:25:56 51°16.248 2°54.391 162.1 1.1 194 11.8
2012-03-06 08:26:01 51°16.246 2°54.39 161.8 1.1 191 11.8
2012-03-06 08:26:05 51°16.245 2°54.39 161.4 1.2 194 12.1
2012-03-06 08:26:11 51°16.244 2°54.39 161.2 1 189 11.9
2012-03-06 08:26:16 51°16.242 2°54.389 161.2 1 190 11.9
2012-03-06 08:26:21 51°16.241 2°54.389 161.1 1 187 12.1
2012-03-06 08:26:25 51°16.24 2°54.388 160.9 0.8 194 12.2
2012-03-06 08:26:30 51°16.239 2°54.388 160.6 0.8 190 12.2
2012-03-06 08:26:36 51°16.237 2°54.387 160.2 1 196 11.9
2012-03-06 08:26:41 51°16.235 2°54.387 160 1 187 11.8
2012-03-06 08:26:45 51°16.234 2°54.387 159.8 1 191 11.9
2012-03-06 08:26:51 51°16.233 2°54.387 160 1 186 12
2012-03-06 08:26:56 51°16.231 2°54.386 159.8 1 197 12
2012-03-06 08:27:01 51°16.23 2°54.386 159.8 1 190 11.8
2012-03-06 08:27:05 51°16.228 2°54.385 159.6 1.2 189 11.7
2012-03-06 08:27:11 51°16.226 2°54.385 159.6 1.2 188 11.9
2012-03-06 08:27:16 51°16.225 2°54.384 159.4 1.2 195 12
2012-03-06 08:27:21 51°16.223 2°54.383 159.3 1.2 191 11.9
2012-03-06 08:27:25 51°16.222 2°54.384 159.3 1.1 183 12
2012-03-06 08:27:30 51°16.221 2°54.383 159.2 1.1 188 11.9
2012-03-06 08:27:36 51°16.219 2°54.383 159.1 1.2 191 11.9
2012-03-06 08:27:41 51°16.218 2°54.382 159 1.1 198 12.1
2012-03-06 08:27:45 51°16.217 2°54.383 159 0.8 182 11.9
2012-03-06 08:27:50 51°16.215 2°54.382 158.9 1 187 11.8
2012-03-06 08:27:56 51°16.213 2°54.381 158.8 1.2 189 11.9
2012-03-06 08:28:01 51°16.212 2°54.381 158.4 1.1 189 12